Time;durP1;ratioP1;P1;durP2;ratioP2;P2;SDS_P1;SDS_P2;PMS_P1;PMS_P2;Temp;Humidity;BMP_temperature;BMP_pressure;BME280_temperature;BME280_humidity;BME280_pressure;Samples;Min_cycle;Max_cycle;Signal;HPM_P1;HPM_P2
2022/12/21 00:00:14;;;;;;;31.88;21.08;;;;;;;4.57;94.32;98322.06;5041362;28;20025;-79
2022/12/21 00:02:40;;;;;;;34.70;20.98;;;;;;;4.60;95.15;98321.63;5041307;28;20037;-80
2022/12/21 00:05:07;;;;;;;30.80;21.75;;;;;;;4.50;95.20;98308.94;5032520;28;20033;-79
2022/12/21 00:07:32;;;;;;;30.52;20.90;;;;;;;4.47;94.83;98303.31;5026516;28;20041;-80
2022/12/21 00:09:58;;;;;;;32.42;21.70;;;;;;;4.62;94.38;98322.22;5038668;28;20085;-79
2022/12/21 00:12:23;;;;;;;32.38;20.73;;;;;;;4.74;94.05;98314.34;5031463;28;20056;-79
2022/12/21 00:14:49;;;;;;;34.22;20.90;;;;;;;4.70;93.74;98302.59;5025105;28;20378;-80
2022/12/21 00:17:16;;;;;;;30.50;21.10;;;;;;;4.70;94.91;98313.16;5025274;28;20099;-80
2022/12/21 00:19:43;;;;;;;34.03;20.85;;;;;;;4.75;94.21;98308.81;5025444;28;20022;-80
2022/12/21 00:22:09;;;;;;;28.67;20.75;;;;;;;4.79;93.55;98295.97;5028580;28;20132;-80
2022/12/21 00:24:34;;;;;;;31.85;20.70;;;;;;;4.83;93.01;98303.22;5006569;28;20036;-79
2022/12/21 00:27:00;;;;;;;33.47;21.48;;;;;;;4.87;92.49;98314.16;5028097;28;20037;-79
2022/12/21 00:29:26;;;;;;;30.40;20.40;;;;;;;4.85;92.81;98309.09;5042686;28;20431;-79
2022/12/21 00:31:51;;;;;;;33.40;21.98;;;;;;;4.80;92.90;98302.88;5029514;28;20060;-80
2022/12/21 00:34:17;;;;;;;33.40;20.33;;;;;;;4.86;92.59;98308.06;5045138;28;20022;-79
2022/12/21 00:36:43;;;;;;;33.58;20.38;;;;;;;4.86;93.19;98310.72;5028238;28;20068;-79
2022/12/21 00:39:09;;;;;;;30.58;21.00;;;;;;;4.86;92.79;98305.41;5028475;28;20021;-80
2022/12/21 00:41:34;;;;;;;29.15;20.00;;;;;;;4.82;92.97;98306.09;5023495;28;22188;-79
2022/12/21 00:44:00;;;;;;;34.88;23.48;;;;;;;4.85;92.45;98303.78;4997237;28;20066;-79
2022/12/21 00:46:27;;;;;;;32.22;21.20;;;;;;;4.82;93.27;98295.53;5027508;28;20037;-79
2022/12/21 00:48:55;;;;;;;37.08;21.70;;;;;;;4.75;93.04;98308.81;5029765;28;20029;-80
2022/12/21 00:51:22;;;;;;;32.17;21.73;;;;;;;4.84;92.82;98304.03;5028376;28;20029;-79
2022/12/21 00:53:48;;;;;;;32.90;22.45;;;;;;;4.68;92.97;98305.47;5043515;28;20021;-79
2022/12/21 00:56:15;;;;;;;33.95;20.58;;;;;;;4.91;93.43;98307.41;5029902;28;20477;-79
2022/12/21 00:58:41;;;;;;;32.42;22.20;;;;;;;4.96;92.30;98310.16;5043095;28;20037;-79
2022/12/21 01:01:18;;;;;;;32.45;21.15;;;;;;;5.00;92.32;98312.13;5030473;28;20033;-79
2022/12/21 01:03:47;;;;;;;33.42;20.48;;;;;;;4.96;92.92;98307.50;5030589;28;20038;-79
2022/12/21 01:06:24;;;;;;;31.17;21.83;;;;;;;4.70;93.20;98294.66;5030506;28;20044;-79
2022/12/21 01:08:51;;;;;;;31.23;19.67;;;;;;;4.72;94.85;98316.41;5026445;28;20033;-79
2022/12/21 01:11:17;;;;;;;36.33;22.27;;;;;;;4.43;95.76;98305.56;5029561;28;20099;-79
2022/12/21 01:13:44;;;;;;;41.33;26.27;;;;;;;4.46;96.16;98307.78;5026039;28;20296;-79
2022/12/21 01:16:16;;;;;;;32.78;22.48;;;;;;;4.72;94.87;98311.13;5040722;28;20029;-80
2022/12/21 01:18:42;;;;;;;37.00;24.80;;;;;;;4.67;94.60;98317.09;5028173;28;20043;-79
2022/12/21 01:21:13;;;;;;;32.53;21.20;;;;;;;4.49;96.09;98304.69;5025500;28;20108;-80
2022/12/21 01:23:39;;;;;;;37.85;22.70;;;;;;;4.58;96.02;98318.41;5026537;28;20040;-80
2022/12/21 01:26:05;;;;;;;31.52;21.13;;;;;;;4.83;94.48;98320.91;5028372;28;20029;-79
2022/12/21 01:28:31;;;;;;;35.92;23.13;;;;;;;4.46;96.63;98331.56;5023963;28;21213;-80
2022/12/21 01:31:01;;;;;;;36.25;24.15;;;;;;;4.63;95.47;98329.09;5021480;28;20049;-80
2022/12/21 01:33:27;;;;;;;31.98;21.35;;;;;;;4.55;97.06;98327.59;5021945;28;20036;-79
2022/12/21 01:35:53;;;;;;;32.00;20.95;;;;;;;4.83;94.76;98339.41;5025565;28;20033;-80
2022/12/21 01:38:18;;;;;;;41.03;25.90;;;;;;;4.26;98.05;98338.13;5007106;28;20091;-79
2022/12/21 01:40:43;;;;;;;48.42;27.45;;;;;;;4.29;98.85;98337.66;5030597;28;20543;-80
2022/12/21 01:43:35;;;;;;;43.67;27.98;;;;;;;4.13;100.00;98328.50;5010140;28;20029;-80
2022/12/21 01:46:01;;;;;;;48.70;30.05;;;;;;;4.28;98.74;98314.94;5027674;28;20021;-80
2022/12/21 01:48:26;;;;;;;37.05;24.33;;;;;;;4.54;98.71;98331.25;5028636;28;20040;-80
2022/12/21 01:51:03;;;;;;;41.08;25.58;;;;;;;4.41;98.05;98320.06;5010622;28;20131;-80
2022/12/21 01:53:36;;;;;;;43.75;29.10;;;;;;;4.45;97.59;98327.31;5013622;28;20040;-80
2022/12/21 01:56:06;;;;;;;37.85;23.27;;;;;;;4.80;95.06;98326.66;5026724;28;20037;-80
2022/12/21 01:58:32;;;;;;;41.28;25.95;;;;;;;4.14;100.00;98324.84;5040395;28;20120;-80
2022/12/21 02:00:59;;;;;;;38.05;25.73;;;;;;;4.09;100.00;98316.75;5038598;28;20060;-79
2022/12/21 02:03:32;;;;;;;34.42;22.70;;;;;;;4.35;99.85;98315.63;5027912;28;20120;-80
2022/12/21 02:06:18;;;;;;;40.72;26.25;;;;;;;4.57;97.18;98319.44;5024806;28;20033;-80
2022/12/21 02:08:43;;;;;;;44.25;28.77;;;;;;;4.11;100.00;98313.88;5026065;28;20375;-80
2022/12/21 02:11:10;;;;;;;62.15;30.25;;;;;;;3.95;100.00;98317.94;5027123;28;20043;-79
2022/12/21 02:13:36;;;;;;;51.67;31.52;;;;;;;3.85;100.00;98314.16;5011606;28;20099;-79
2022/12/21 02:16:18;;;;;;;52.05;30.60;;;;;;;3.80;100.00;98306.91;5025811;28;20037;-79
2022/12/21 02:18:43;;;;;;;52.33;32.63;;;;;;;3.93;100.00;98314.72;5029755;28;20025;-79
2022/12/21 02:21:21;;;;;;;56.28;31.88;;;;;;;3.94;100.00;98312.84;5022276;28;20032;-79
2022/12/21 02:24:20;;;;;;;50.30;29.58;;;;;;;4.02;100.00;98321.28;5024428;28;20084;-79
2022/12/21 02:26:51;;;;;;;47.25;29.10;;;;;;;4.29;100.00;98313.88;5027849;28;20072;-80
2022/12/21 02:29:30;;;;;;;44.47;27.20;;;;;;;4.26;100.00;98317.78;5027626;28;20389;-79
2022/12/21 02:32:05;;;;;;;48.13;28.52;;;;;;;4.19;100.00;98311.78;5026771;28;20040;-79
2022/12/21 02:35:13;;;;;;;40.67;24.67;;;;;;;4.38;100.00;98308.09;5031181;28;20021;-79
2022/12/21 02:37:46;;;;;;;37.00;26.52;;;;;;;4.54;99.19;98315.38;5026849;28;20029;-79
2022/12/21 02:40:46;;;;;;;42.30;27.17;;;;;;;4.46;100.00;98315.72;5044462;28;20029;-79
2022/12/21 02:46:29;;;;;;;33.22;22.58;;;;;;;4.66;99.73;98312.00;5018192;28;20072;-80
2022/12/21 02:49:08;;;;;;;29.55;19.30;;;;;;;4.88;97.07;98300.72;5024479;28;20033;-80
2022/12/21 02:51:43;;;;;;;30.13;18.55;;;;;;;4.99;96.50;98293.84;5027774;28;20034;-79
2022/12/21 02:54:10;;;;;;;21.95;16.13;;;;;;;5.07;96.51;98290.88;5031186;28;20122;-79
2022/12/21 02:56:36;;;;;;;20.42;14.00;;;;;;;5.14;96.03;98292.38;5030463;28;20051;-80
2022/12/21 02:59:03;;;;;;;20.92;14.35;;;;;;;5.27;97.09;98297.47;5024705;28;20116;-79
2022/12/21 03:01:52;;;;;;;19.38;14.23;;;;;;;5.31;96.47;98290.69;5027080;28;20064;-80
2022/12/21 03:04:17;;;;;;;17.77;12.57;;;;;;;5.30;97.13;98291.75;5017713;28;20496;-80
2022/12/21 03:07:11;;;;;;;15.90;11.77;;;;;;;5.32;97.49;98268.50;5025979;28;20035;-80
2022/12/21 03:09:48;;;;;;;17.73;13.05;;;;;;;5.46;97.95;98290.22;5024288;28;20043;-79
2022/12/21 03:12:34;;;;;;;17.88;13.00;;;;;;;5.50;97.53;98283.47;5027737;28;20029;-79
2022/12/21 03:15:18;;;;;;;17.95;13.70;;;;;;;5.57;97.76;98273.56;5027617;28;20741;-79
2022/12/21 03:17:43;;;;;;;17.90;12.98;;;;;;;5.56;97.44;98281.72;5027014;28;20040;-80
2022/12/21 03:20:20;;;;;;;18.75;13.00;;;;;;;5.53;97.62;98272.41;5026601;28;20377;-80
2022/12/21 03:23:03;;;;;;;21.15;14.02;;;;;;;5.48;98.30;98279.44;5020957;28;20029;-80
2022/12/21 03:25:48;;;;;;;19.98;14.68;;;;;;;5.58;99.59;98287.59;5040302;28;20132;-80
2022/12/21 03:28:20;;;;;;;24.25;16.48;;;;;;;5.47;99.41;98281.28;5023794;28;20033;-80
2022/12/21 03:30:51;;;;;;;26.88;18.80;;;;;;;5.43;100.00;98281.97;5021906;28;20029;-80
2022/12/21 03:33:22;;;;;;;19.27;14.90;;;;;;;5.51;100.00;98292.19;5044148;28;20044;-80
2022/12/21 03:36:15;;;;;;;25.17;17.50;;;;;;;5.47;100.00;98289.22;5032880;28;20053;-80
2022/12/21 03:38:46;;;;;;;24.65;17.52;;;;;;;5.49;100.00;98294.25;5026926;28;20129;-80
2022/12/21 03:41:20;;;;;;;26.73;18.85;;;;;;;5.46;100.00;98298.16;5031974;28;20513;-80
2022/12/21 03:43:48;;;;;;;24.15;17.80;;;;;;;5.44;100.00;98300.25;5047512;28;20029;-80
2022/12/21 03:46:20;;;;;;;25.27;19.27;;;;;;;5.45;100.00;98293.94;5031462;28;20816;-80
2022/12/21 03:49:02;;;;;;;18.92;13.88;;;;;;;5.50;100.00;98303.81;5016324;28;20029;-80
2022/12/21 03:51:36;;;;;;;29.05;20.67;;;;;;;5.48;100.00;98305.91;5033486;28;20033;-80
2022/12/21 03:54:13;;;;;;;22.55;16.70;;;;;;;5.55;100.00;98310.03;5047821;28;20033;-80
2022/12/21 03:56:40;;;;;;;22.00;15.98;;;;;;;5.53;100.00;98314.75;5034766;28;20692;-80
2022/12/21 03:59:08;;;;;;;27.27;19.10;;;;;;;5.57;99.76;98315.91;5037109;28;20034;-80
2022/12/21 04:02:02;;;;;;;27.83;19.80;;;;;;;5.47;100.00;98301.63;5035229;28;20109;-80
2022/12/21 04:04:34;;;;;;;32.50;20.60;;;;;;;5.43;100.00;98305.78;5029074;28;20389;-80
2022/12/21 04:07:04;;;;;;;33.83;22.63;;;;;;;5.42;100.00;98312.13;5032326;28;20040;-80
2022/12/21 04:09:29;;;;;;;21.83;17.00;;;;;;;5.40;100.00;98309.69;5035454;28;20033;-80
2022/12/21 04:14:39;;;;;;;28.48;20.13;;;;;;;5.50;100.00;98302.00;5029303;28;20033;-80
2022/12/21 04:17:05;;;;;;;27.33;19.27;;;;;;;5.37;100.00;98301.41;5026452;28;21306;-80
2022/12/21 04:28:07;;;;;;;24.42;17.73;;;;;;;5.30;100.00;98304.16;5030043;28;20046;-80
2022/12/21 04:30:31;;;;;;;30.50;19.02;;;;;;;5.41;100.00;98307.84;5032772;28;20279;-80
2022/12/21 04:32:56;;;;;;;26.33;17.95;;;;;;;5.68;98.30;98299.22;5032465;28;20029;-80
2022/12/21 04:35:22;;;;;;;31.45;22.50;;;;;;;5.67;96.34;98305.56;5031562;28;20393;-80
2022/12/21 04:37:47;;;;;;;22.70;16.83;;;;;;;5.76;96.08;98293.59;5031005;28;20033;-80
2022/12/21 04:40:12;;;;;;;38.70;26.05;;;;;;;5.50;97.97;98294.06;5030282;28;20040;-80
2022/12/21 04:42:39;;;;;;;23.52;17.10;;;;;;;5.62;96.71;98280.81;5011993;28;20048;-80
2022/12/21 04:45:05;;;;;;;22.33;16.63;;;;;;;5.71;95.89;98290.81;5032931;28;20422;-80
2022/12/21 04:47:30;;;;;;;31.35;21.00;;;;;;;5.42;100.00;98289.09;5028795;28;20123;-80
2022/12/21 04:49:55;;;;;;;27.17;18.77;;;;;;;5.49;98.62;98284.50;5039248;28;20126;-80
2022/12/21 04:52:21;;;;;;;29.58;19.35;;;;;;;5.46;99.40;98286.81;5024409;28;20044;-80
2022/12/21 04:54:46;;;;;;;24.83;18.83;;;;;;;5.60;97.76;98290.81;5032709;28;20112;-80
2022/12/21 04:57:12;;;;;;;28.33;20.23;;;;;;;5.56;98.39;98287.84;5016205;28;20037;-80
2022/12/21 04:59:37;;;;;;;28.10;18.80;;;;;;;5.66;97.18;98282.75;5046574;28;20037;-79
2022/12/21 05:02:03;;;;;;;26.90;18.05;;;;;;;5.91;94.28;98280.72;5018632;28;20032;-79
2022/12/21 05:04:29;;;;;;;31.00;20.85;;;;;;;5.80;95.36;98283.34;5044775;28;20028;-79
2022/12/21 05:06:57;;;;;;;22.95;17.45;;;;;;;5.77;96.47;98279.31;5036542;28;20083;-79
2022/12/21 05:09:22;;;;;;;24.15;18.63;;;;;;;5.81;95.17;98280.44;5029054;28;20029;-79
2022/12/21 05:11:48;;;;;;;27.17;19.00;;;;;;;5.68;96.76;98277.25;5009044;28;20040;-79
2022/12/21 05:14:14;;;;;;;26.20;18.48;;;;;;;5.83;95.00;98280.25;5033187;28;20039;-79
2022/12/21 05:16:39;;;;;;;26.20;17.60;;;;;;;5.97;94.04;98282.44;5031428;28;20025;-79
2022/12/21 05:19:05;;;;;;;27.70;17.77;;;;;;;6.01;93.97;98280.94;5031702;28;20044;-80
2022/12/21 05:21:31;;;;;;;27.50;18.25;;;;;;;5.90;93.61;98284.41;5020693;28;20089;-79
2022/12/21 05:23:57;;;;;;;23.38;17.73;;;;;;;5.98;93.60;98276.06;5014151;28;20033;-79
2022/12/21 05:26:22;;;;;;;24.55;17.88;;;;;;;5.79;95.17;98282.53;5000041;28;20041;-79
2022/12/21 05:28:48;;;;;;;28.98;18.50;;;;;;;5.97;93.70;98290.38;5020717;28;20040;-79
2022/12/21 05:31:15;;;;;;;24.50;17.48;;;;;;;5.93;93.35;98291.88;5008537;28;20365;-79
2022/12/21 05:33:40;;;;;;;22.98;16.77;;;;;;;6.03;93.18;98284.16;5020187;28;20033;-79
2022/12/21 05:36:08;;;;;;;22.98;16.88;;;;;;;5.91;93.82;98277.25;5004069;28;20098;-79
2022/12/21 05:38:34;;;;;;;26.00;18.40;;;;;;;5.94;93.01;98272.28;5024685;28;20408;-80
2022/12/21 05:40:59;;;;;;;21.02;17.20;;;;;;;6.03;93.37;98283.34;5022746;28;20029;-79
2022/12/21 05:43:25;;;;;;;25.10;18.17;;;;;;;5.98;93.32;98275.28;5008137;28;20123;-79
2022/12/21 05:45:50;;;;;;;24.30;18.23;;;;;;;6.03;92.94;98270.91;5019434;28;20048;-79
2022/12/21 05:48:16;;;;;;;24.02;18.45;;;;;;;6.05;92.91;98278.59;5030412;28;20036;-79
2022/12/21 05:50:42;;;;;;;22.92;17.67;;;;;;;6.00;92.99;98279.31;5024001;28;20037;-79
2022/12/21 05:53:08;;;;;;;24.63;18.98;;;;;;;5.90;93.21;98279.09;5027140;28;20041;-79
2022/12/21 05:55:34;;;;;;;30.08;23.60;;;;;;;5.94;93.43;98276.81;5047315;28;20615;-79
2022/12/21 05:57:59;;;;;;;26.20;18.15;;;;;;;5.98;92.97;98278.72;5026517;28;20132;-79
2022/12/21 06:00:25;;;;;;;29.50;22.10;;;;;;;5.94;93.12;98268.88;5022031;28;20084;-79
2022/12/21 06:02:51;;;;;;;25.02;18.25;;;;;;;5.97;92.97;98279.78;5010087;28;20103;-79
2022/12/21 06:05:17;;;;;;;24.55;19.00;;;;;;;5.96;93.60;98272.88;5028644;28;20029;-79
2022/12/21 06:07:42;;;;;;;24.42;18.05;;;;;;;5.97;92.67;98271.03;5023645;28;20029;-79
2022/12/21 06:10:08;;;;;;;26.95;18.23;;;;;;;6.10;92.77;98278.72;5027481;28;20033;-79
2022/12/21 06:12:34;;;;;;;25.15;18.85;;;;;;;5.98;92.99;98276.06;5029536;28;20029;-79
2022/12/21 06:15:00;;;;;;;25.65;18.77;;;;;;;6.03;92.17;98268.25;5030151;28;20031;-79
2022/12/21 06:17:29;;;;;;;24.90;17.35;;;;;;;6.00;92.65;98266.09;5022826;28;20855;-79
2022/12/21 06:19:55;;;;;;;31.73;21.23;;;;;;;5.98;93.65;98276.06;5026345;28;20033;-79
2022/12/21 06:22:20;;;;;;;27.13;19.45;;;;;;;6.10;92.21;98277.91;5012268;28;20048;-80
2022/12/21 06:24:45;;;;;;;35.15;26.02;;;;;;;5.88;93.82;98281.16;5029181;28;20031;-79
2022/12/21 06:27:11;;;;;;;26.70;18.35;;;;;;;6.05;93.11;98283.91;4990979;28;20056;-79
2022/12/21 06:29:36;;;;;;;32.10;22.75;;;;;;;6.04;92.39;98291.06;5012229;28;20030;-79
2022/12/21 06:32:01;;;;;;;23.30;17.35;;;;;;;6.09;91.91;98286.91;5029453;28;20037;-79
2022/12/21 06:34:27;;;;;;;26.15;19.05;;;;;;;5.90;93.88;98283.56;5024526;28;20110;-79
2022/12/21 06:36:52;;;;;;;26.15;18.42;;;;;;;6.07;92.11;98295.09;5020978;28;20041;-80
2022/12/21 06:39:18;;;;;;;26.27;18.77;;;;;;;6.11;92.55;98306.03;5007086;28;20029;-79
2022/12/21 06:41:43;;;;;;;31.27;21.48;;;;;;;5.98;92.54;98301.78;5047394;28;20029;-79
2022/12/21 06:44:08;;;;;;;33.90;24.73;;;;;;;5.68;94.41;98301.88;5033649;28;20045;-79
2022/12/21 06:46:34;;;;;;;35.17;23.08;;;;;;;5.73;94.72;98290.59;5032172;28;20056;-79
2022/12/21 06:49:00;;;;;;;39.53;25.20;;;;;;;5.66;94.32;98298.66;5028303;28;20033;-79
2022/12/21 06:51:25;;;;;;;31.67;21.30;;;;;;;5.71;94.50;98295.31;5025252;28;20033;-79
2022/12/21 06:53:52;;;;;;;28.42;20.60;;;;;;;5.69;94.11;98302.69;5026482;28;20034;-79
2022/12/21 06:56:20;;;;;;;29.63;20.67;;;;;;;5.71;93.94;98304.06;5029100;28;20032;-79
2022/12/21 06:58:46;;;;;;;30.02;21.77;;;;;;;5.72;94.51;98313.59;5034069;28;20072;-79
2022/12/21 07:01:26;;;;;;;27.95;20.08;;;;;;;5.76;93.91;98308.66;5032913;28;20061;-79
2022/12/21 07:03:52;;;;;;;29.45;21.10;;;;;;;5.61;94.04;98319.72;5025240;28;20599;-79
2022/12/21 07:06:20;;;;;;;28.10;20.70;;;;;;;5.55;93.96;98312.69;5026079;28;20497;-79
2022/12/21 07:08:47;;;;;;;34.28;22.88;;;;;;;5.58;94.96;98320.19;5042596;28;20118;-79
2022/12/21 07:11:15;;;;;;;38.35;24.98;;;;;;;5.36;96.49;98321.75;5029300;28;20041;-79
2022/12/21 07:13:43;;;;;;;31.58;21.75;;;;;;;5.59;94.72;98329.72;5025368;28;20264;-79
2022/12/21 07:16:09;;;;;;;30.15;20.83;;;;;;;5.56;94.01;98308.19;5031796;28;20071;-79
2022/12/21 07:18:35;;;;;;;25.08;18.98;;;;;;;5.45;94.24;98312.44;5030352;28;20025;-79
2022/12/21 07:21:03;;;;;;;29.80;21.70;;;;;;;5.62;93.52;98317.88;5031774;28;20041;-79
2022/12/21 07:23:33;;;;;;;30.17;19.73;;;;;;;5.44;94.90;98315.34;5033440;28;20029;-79
2022/12/21 07:25:59;;;;;;;30.20;21.65;;;;;;;5.40;95.20;98317.63;5033607;28;20029;-79
2022/12/21 07:28:25;;;;;;;28.88;20.48;;;;;;;5.32;94.83;98317.97;5027949;28;20021;-79
2022/12/21 07:30:52;;;;;;;28.75;20.42;;;;;;;5.37;94.38;98319.91;5027573;28;20031;-79
2022/12/21 07:33:19;;;;;;;27.10;18.75;;;;;;;5.41;94.75;98324.53;5027154;28;20032;-79
2022/12/21 07:35:48;;;;;;;30.42;21.15;;;;;;;5.47;93.82;98318.31;5030031;28;20080;-79
2022/12/21 07:38:13;;;;;;;32.03;22.33;;;;;;;5.35;93.51;98296.34;5023754;28;20517;-79
2022/12/21 07:40:39;;;;;;;33.60;22.02;;;;;;;5.58;93.72;98311.41;5028116;28;20116;-79
2022/12/21 07:43:10;;;;;;;30.20;19.85;;;;;;;5.48;93.45;98311.19;5032340;28;20033;-79
2022/12/21 07:45:37;;;;;;;27.27;19.70;;;;;;;5.48;94.01;98301.41;5012483;28;20030;-79
2022/12/21 07:48:03;;;;;;;29.98;19.98;;;;;;;5.48;93.50;98311.19;5016252;28;20087;-79
2022/12/21 07:50:29;;;;;;;29.95;21.92;;;;;;;5.52;93.72;98320.28;5031457;28;20060;-79
2022/12/21 07:52:54;;;;;;;27.60;19.33;;;;;;;5.51;92.90;98316.81;5030812;28;20034;-79
2022/12/21 07:55:20;;;;;;;26.92;19.60;;;;;;;5.50;92.96;98317.06;5031260;28;20133;-79
2022/12/21 07:57:45;;;;;;;27.48;19.65;;;;;;;5.59;93.36;98319.13;5048305;28;20068;-79
2022/12/21 08:00:11;;;;;;;30.10;20.42;;;;;;;5.59;93.34;98321.00;5029373;28;20018;-79
2022/12/21 08:02:36;;;;;;;28.75;20.05;;;;;;;5.44;93.95;98318.75;5039323;28;20029;-79
2022/12/21 08:05:02;;;;;;;32.00;21.45;;;;;;;5.26;94.65;98322.31;5043873;28;20034;-79
2022/12/21 08:07:27;;;;;;;34.33;21.85;;;;;;;5.33;95.65;98322.19;5033357;28;20041;-79
2022/12/21 08:09:53;;;;;;;27.73;19.77;;;;;;;5.37;94.33;98319.91;5049406;28;20405;-79
2022/12/21 08:12:18;;;;;;;30.23;20.27;;;;;;;5.36;95.16;98324.41;5050190;28;20489;-79
2022/12/21 08:14:43;;;;;;;29.08;19.83;;;;;;;5.49;95.02;98320.72;5031403;28;20029;-79
2022/12/21 08:17:09;;;;;;;33.22;21.25;;;;;;;5.59;93.53;98328.94;5028717;28;20037;-79
2022/12/21 08:19:35;;;;;;;34.92;22.35;;;;;;;5.27;95.32;98326.56;5035667;28;20026;-79
2022/12/21 08:22:00;;;;;;;31.80;21.65;;;;;;;5.29;94.65;98321.03;5014626;28;20042;-79
2022/12/21 08:24:26;;;;;;;32.80;24.73;;;;;;;5.21;96.57;98321.38;5019567;28;20511;-79
2022/12/21 08:26:51;;;;;;;32.10;22.88;;;;;;;5.27;96.16;98321.28;5016868;28;20093;-79
2022/12/21 08:29:16;;;;;;;53.63;46.80;;;;;;;5.26;95.91;98310.94;5030743;28;20033;-79
2022/12/21 08:31:42;;;;;;;41.40;31.27;;;;;;;5.31;96.06;98314.50;5011171;28;20443;-79
2022/12/21 08:34:07;;;;;;;44.28;35.72;;;;;;;5.27;98.33;98308.06;5013267;28;20396;-79
2022/12/21 08:36:33;;;;;;;59.42;47.10;;;;;;;5.30;95.69;98314.72;5032449;28;20416;-79
2022/12/21 08:38:58;;;;;;;37.15;26.30;;;;;;;5.35;94.73;98314.88;5029823;28;20087;-79
2022/12/21 08:41:24;;;;;;;32.65;23.17;;;;;;;5.34;94.88;98321.19;5027588;28;20123;-79
2022/12/21 08:43:50;;;;;;;29.70;20.92;;;;;;;5.36;94.06;98307.72;5016119;28;20029;-79
2022/12/21 08:46:16;;;;;;;30.98;21.35;;;;;;;5.32;93.78;98307.38;5029985;28;20045;-79
2022/12/21 08:48:41;;;;;;;29.23;20.63;;;;;;;5.44;93.36;98321.41;5029608;28;20080;-79
2022/12/21 08:51:07;;;;;;;30.42;21.13;;;;;;;5.34;93.20;98323.81;5014206;28;20040;-79
2022/12/21 08:53:34;;;;;;;31.33;21.83;;;;;;;5.27;93.33;98317.81;5025440;28;20030;-79
2022/12/21 08:55:59;;;;;;;27.08;20.23;;;;;;;5.34;93.29;98323.81;5027134;28;20092;-79
2022/12/21 08:58:25;;;;;;;26.80;20.10;;;;;;;5.36;93.51;98321.75;5012181;28;20096;-79
2022/12/21 09:00:52;;;;;;;29.25;20.33;;;;;;;5.32;93.50;98312.66;5034850;28;20025;-79
2022/12/21 09:03:19;;;;;;;27.20;20.20;;;;;;;5.41;93.64;98327.19;5046291;28;20061;-79
2022/12/21 09:05:45;;;;;;;27.00;20.05;;;;;;;5.33;93.96;98314.25;5015550;28;20074;-79
2022/12/21 09:08:12;;;;;;;33.25;22.02;;;;;;;5.31;94.61;98311.03;5041004;28;20036;-79
2022/12/21 09:10:37;;;;;;;28.60;20.00;;;;;;;5.42;94.18;98323.47;5044172;28;20056;-79
2022/12/21 09:13:03;;;;;;;28.25;19.90;;;;;;;5.17;94.18;98299.06;5032423;28;20060;-79
2022/12/21 09:15:28;;;;;;;27.27;19.98;;;;;;;5.35;94.08;98306.94;5030941;28;20025;-79
2022/12/21 09:17:54;;;;;;;28.02;19.52;;;;;;;5.35;93.26;98309.56;5021876;28;20493;-79
2022/12/21 09:20:19;;;;;;;24.85;18.15;;;;;;;5.43;94.04;98311.06;5010497;28;20029;-79
2022/12/21 09:22:45;;;;;;;26.75;19.45;;;;;;;5.46;93.74;98319.34;4998092;28;20025;-79
2022/12/21 09:25:10;;;;;;;30.10;20.52;;;;;;;5.38;94.15;98321.53;5009137;28;20091;-79
2022/12/21 09:27:35;;;;;;;26.98;19.08;;;;;;;5.41;93.77;98307.84;5015073;28;20057;-79
2022/12/21 09:30:01;;;;;;;31.48;20.88;;;;;;;5.35;94.47;98308.75;5024314;28;20033;-79
2022/12/21 09:32:26;;;;;;;27.10;19.17;;;;;;;5.59;94.17;98313.81;5027809;28;20037;-79
2022/12/21 09:34:52;;;;;;;28.33;18.48;;;;;;;5.61;93.35;98324.22;5030350;28;20072;-79
2022/12/21 09:37:18;;;;;;;28.15;19.08;;;;;;;5.64;93.38;98316.59;5014460;28;20567;-79
2022/12/21 09:39:44;;;;;;;26.85;18.10;;;;;;;5.59;94.36;98327.06;5012739;28;21767;-79
2022/12/21 09:42:18;;;;;;;29.85;20.02;;;;;;;5.72;94.06;98329.50;5026068;28;20439;-79
2022/12/21 09:44:59;;;;;;;28.52;19.67;;;;;;;5.61;93.88;98325.03;5008514;28;20724;-79
2022/12/21 09:47:35;;;;;;;27.90;18.13;;;;;;;5.62;94.58;98317.88;5014377;28;20250;-79
2022/12/21 09:50:04;;;;;;;27.15;19.33;;;;;;;5.59;94.60;98327.06;5014995;28;20040;-79
2022/12/21 09:52:36;;;;;;;29.05;20.48;;;;;;;5.54;94.57;98324.31;5011351;28;20048;-79
2022/12/21 09:55:10;;;;;;;31.48;20.83;;;;;;;5.50;94.88;98325.81;5012872;28;20137;-79
2022/12/21 09:57:35;;;;;;;34.50;21.75;;;;;;;5.36;96.38;98319.09;5027936;28;20040;-79
2022/12/21 10:00:12;;;;;;;29.83;20.13;;;;;;;5.31;96.18;98317.16;5016676;28;20033;-79
2022/12/21 10:02:48;;;;;;;33.33;22.33;;;;;;;5.47;95.85;98313.03;5013362;28;20039;-79
2022/12/21 10:05:25;;;;;;;32.65;23.13;;;;;;;5.43;97.45;98317.16;5020245;28;20049;-79
2022/12/21 10:08:00;;;;;;;30.92;20.65;;;;;;;5.44;97.05;98304.75;5027343;28;20033;-79
2022/12/21 10:10:48;;;;;;;31.98;20.63;;;;;;;5.53;95.52;98290.13;5012223;28;20410;-79
2022/12/21 10:13:56;;;;;;;31.17;20.83;;;;;;;5.67;95.59;98299.47;5005956;28;20728;-79
2022/12/21 10:16:33;;;;;;;27.98;18.73;;;;;;;5.64;95.86;98306.00;5012844;28;21228;-79
2022/12/21 10:19:12;;;;;;;26.15;18.60;;;;;;;5.65;95.23;98297.06;5013216;28;20032;-79
2022/12/21 10:22:11;;;;;;;26.65;17.92;;;;;;;5.57;96.35;98312.47;5011155;28;20473;-79
2022/12/21 10:24:43;;;;;;;30.55;19.02;;;;;;;5.58;96.62;98306.13;5013311;28;20024;-79
2022/12/21 10:27:29;;;;;;;24.63;17.55;;;;;;;5.68;95.76;98301.88;5015664;28;20037;-79
2022/12/21 10:29:57;;;;;;;28.97;19.07;;;;;;;5.59;96.06;98305.09;5010012;28;20347;-79
2022/12/21 10:32:26;;;;;;;26.65;18.23;;;;;;;5.62;96.05;98297.50;5025787;28;20040;-79
2022/12/21 10:34:54;;;;;;;27.67;18.65;;;;;;;5.51;96.51;98286.91;5012629;28;20029;-79
2022/12/21 10:37:21;;;;;;;27.58;18.10;;;;;;;5.53;96.78;98298.88;5011916;28;20041;-79
2022/12/21 10:39:54;;;;;;;26.05;17.65;;;;;;;5.72;95.60;98299.59;5012375;28;20083;-79
2022/12/21 10:42:40;;;;;;;24.13;17.75;;;;;;;5.74;94.47;98286.91;5012386;28;20061;-79
2022/12/21 10:45:12;;;;;;;26.95;17.55;;;;;;;5.78;94.71;98288.06;5013740;28;20030;-79
2022/12/21 10:47:37;;;;;;;26.40;17.20;;;;;;;5.66;94.98;98290.69;5008623;28;20071;-79
2022/12/21 10:50:21;;;;;;;21.17;15.38;;;;;;;5.70;94.49;98291.06;5006416;28;20034;-79
2022/12/21 10:52:49;;;;;;;21.88;16.38;;;;;;;5.69;94.29;98294.75;5011238;28;20127;-79
2022/12/21 10:55:17;;;;;;;22.63;16.00;;;;;;;5.64;99.93;98289.31;5012276;28;20124;-79
2022/12/21 10:57:45;;;;;;;26.75;17.90;;;;;;;5.65;97.50;98281.16;5009372;28;20592;-79
2022/12/21 11:00:38;;;;;;;23.65;16.58;;;;;;;5.70;98.79;98291.06;5009919;28;20448;-79
2022/12/21 11:03:06;;;;;;;24.20;16.63;;;;;;;5.84;95.19;98290.63;5010764;28;20079;-79
2022/12/21 11:05:41;;;;;;;21.90;15.68;;;;;;;5.74;98.45;98269.19;5012130;28;20025;-79
2022/12/21 11:08:12;;;;;;;20.83;15.18;;;;;;;5.79;97.97;98279.88;5018439;28;20033;-79
2022/12/21 11:10:39;;;;;;;21.88;15.68;;;;;;;5.81;99.71;98264.56;5013661;28;20034;-79
2022/12/21 11:13:05;;;;;;;22.30;15.70;;;;;;;5.92;99.72;98269.06;5023660;28;20033;-79
2022/12/21 11:15:32;;;;;;;20.98;14.80;;;;;;;5.97;98.80;98271.84;5011752;28;20318;-79
2022/12/21 11:17:58;;;;;;;19.70;14.88;;;;;;;6.01;97.87;98274.81;5008548;28;20104;-79
2022/12/21 11:20:24;;;;;;;18.08;13.00;;;;;;;6.14;97.12;98265.81;5010743;28;20036;-79
2022/12/21 11:22:53;;;;;;;20.23;13.98;;;;;;;6.23;99.82;98253.78;5021861;28;20134;-79
2022/12/21 11:25:23;;;;;;;18.05;13.48;;;;;;;6.28;99.91;98256.56;5012161;28;20048;-79
2022/12/21 11:27:54;;;;;;;19.77;13.70;;;;;;;6.21;95.77;98254.03;5014026;28;20528;-79
2022/12/21 11:30:25;;;;;;;16.52;11.85;;;;;;;6.33;96.41;98259.31;5013998;28;20033;-79
2022/12/21 11:32:54;;;;;;;18.90;12.32;;;;;;;6.39;100.00;98245.94;5021282;28;20547;-79
2022/12/21 11:35:28;;;;;;;18.73;13.55;;;;;;;6.52;100.00;98250.13;5015870;28;20036;-79
2022/12/21 11:37:55;;;;;;;19.33;13.93;;;;;;;6.33;98.75;98248.72;5014265;28;20041;-79
2022/12/21 11:40:24;;;;;;;19.25;14.45;;;;;;;6.35;99.16;98238.69;5017718;28;20022;-79
2022/12/21 11:42:59;;;;;;;20.13;14.63;;;;;;;6.47;99.34;98248.19;5031205;28;20405;-79
2022/12/21 11:45:49;;;;;;;18.40;12.20;;;;;;;6.55;99.00;98241.72;5027154;28;20481;-79
2022/12/21 11:49:06;;;;;;;12.15;9.85;;;;;;;6.54;98.03;98235.59;5034373;28;20025;-79